createdAt,value
2023-04-15T00:01:19.645Z,99771.91
2023-04-15T00:03:47.821Z,99772.63
2023-04-15T00:06:15.281Z,99776.94
2023-04-15T00:08:42.439Z,99774.38
2023-04-15T00:11:09.668Z,99772.63
2023-04-15T00:13:36.612Z,99778.03
2023-04-15T00:16:06.464Z,99778.03
2023-04-15T00:18:33.393Z,99780.97
2023-04-15T00:21:00.478Z,99783.75
2023-04-15T00:23:28.156Z,99775.66
2023-04-15T00:25:55.679Z,99778.56
2023-04-15T00:28:22.646Z,99769.66
2023-04-15T00:30:50.457Z,99773.25
2023-04-15T00:33:18.806Z,99776.84
2023-04-15T00:35:46.026Z,99781.84
2023-04-15T00:38:13.243Z,99778.66
2023-04-15T00:40:41.418Z,99779.78
2023-04-15T00:43:08.671Z,99770.88
2023-04-15T00:45:35.903Z,99771.44
2023-04-15T00:48:03.589Z,99774.69
2023-04-15T00:50:32.932Z,99775.81
2023-04-15T00:53:00.017Z,99769.00
2023-04-15T00:55:27.320Z,99780.13
2023-04-15T00:57:55.016Z,99764.22
2023-04-15T01:00:22.771Z,99783.94
2023-04-15T01:02:50.976Z,99782.56
2023-04-15T01:05:19.464Z,99771.78
2023-04-15T01:07:48.942Z,99773.03
2023-04-15T01:10:16.218Z,99782.50
2023-04-15T01:12:43.414Z,99780.97
2023-04-15T01:15:11.216Z,99782.34
2023-04-15T01:17:39.600Z,99778.97
2023-04-15T01:20:10.577Z,99774.91
2023-04-15T01:22:38.345Z,99788.16
2023-04-15T01:25:13.077Z,99762.81
2023-04-15T01:27:45.383Z,99792.59
2023-04-15T01:30:12.724Z,99790.94
2023-04-15T01:32:39.850Z,99787.34
2023-04-15T01:35:07.821Z,99800.50
2023-04-15T01:37:34.891Z,99792.94
2023-04-15T01:40:03.354Z,99791.81
2023-04-15T01:42:30.369Z,99803.25
2023-04-15T01:44:59.003Z,99793.31
2023-04-15T01:47:25.958Z,99796.66
2023-04-15T01:49:53.245Z,99798.88
2023-04-15T01:52:20.673Z,99792.28
2023-04-15T01:54:48.090Z,99799.69
2023-04-15T01:57:15.074Z,99800.38
2023-04-15T01:59:42.704Z,99802.94
2023-04-15T02:02:11.305Z,99807.84
2023-04-15T02:04:39.093Z,99797.84
2023-04-15T02:07:06.019Z,99812.00
2023-04-15T02:09:33.696Z,99792.97
2023-04-15T02:12:00.800Z,99773.91
2023-04-15T02:14:28.072Z,99806.28
2023-04-15T02:16:55.056Z,99801.13
2023-04-15T02:19:23.790Z,99806.28
2023-04-15T02:21:50.714Z,99804.41
2023-04-15T02:24:17.868Z,99797.94
2023-04-15T02:26:44.841Z,99790.84
2023-04-15T02:29:12.268Z,99780.50
2023-04-15T02:31:40.633Z,99769.16
2023-04-15T02:34:08.251Z,99791.91
2023-04-15T02:36:36.632Z,99784.16
2023-04-15T02:39:04.424Z,99786.00
2023-04-15T02:41:31.436Z,99771.81
2023-04-15T02:43:58.703Z,99787.34
2023-04-15T02:46:25.975Z,99791.13
2023-04-15T02:48:53.923Z,99795.16
2023-04-15T02:51:22.488Z,99802.91
2023-04-15T02:53:51.338Z,99805.31
2023-04-15T02:56:19.448Z,99807.28
2023-04-15T02:58:46.988Z,99809.88
2023-04-15T03:01:14.068Z,99816.69
2023-04-15T03:03:41.453Z,99818.75
2023-04-15T03:06:09.065Z,99821.41
2023-04-15T03:08:37.064Z,99811.16
2023-04-15T03:11:05.581Z,99816.22
2023-04-15T03:13:32.877Z,99820.75
2023-04-15T03:15:59.848Z,99815.09
2023-04-15T03:18:27.177Z,99821.97
2023-04-15T03:20:54.302Z,99819.31
2023-04-15T03:23:21.776Z,99818.19
2023-04-15T03:25:48.835Z,99822.28
2023-04-15T03:28:17.472Z,99802.31
2023-04-15T03:30:44.429Z,99827.38
2023-04-15T03:33:12.083Z,99825.88
2023-04-15T03:35:38.998Z,99835.38
2023-04-15T03:38:06.510Z,99816.22
2023-04-15T03:40:33.520Z,99841.13
2023-04-15T03:43:00.960Z,99839.91
2023-04-15T03:45:29.379Z,99839.38
2023-04-15T03:48:00.596Z,99833.25
2023-04-15T03:50:38.237Z,99833.13
2023-04-15T03:53:06.039Z,99837.75
2023-04-15T03:55:33.020Z,99842.91
2023-04-15T03:58:00.272Z,99842.03
2023-04-15T04:00:27.327Z,99843.56
2023-04-15T04:02:56.363Z,99842.19
2023-04-15T04:05:23.473Z,99846.66
2023-04-15T04:07:50.677Z,99849.56
2023-04-15T04:10:18.886Z,99855.13
2023-04-15T04:12:46.253Z,99864.06
2023-04-15T04:15:13.263Z,99861.81
2023-04-15T04:17:40.814Z,99870.28
2023-04-15T04:20:10.090Z,99872.28
2023-04-15T04:22:38.765Z,99863.91
2023-04-15T04:25:07.221Z,99874.97
2023-04-15T04:27:34.409Z,99838.72
2023-04-15T04:30:01.598Z,99872.81
2023-04-15T04:32:28.959Z,99870.84
2023-04-15T04:34:55.973Z,99870.00
2023-04-15T04:37:25.125Z,99867.41
2023-04-15T04:39:52.092Z,99868.38
2023-04-15T04:42:19.360Z,99864.31
2023-04-15T04:44:46.454Z,99868.22
2023-04-15T04:47:14.151Z,99862.25
2023-04-15T04:49:41.592Z,99867.09
2023-04-15T04:52:09.096Z,99866.28
2023-04-15T04:54:37.719Z,99859.41
2023-04-15T04:57:04.970Z,99867.91
2023-04-15T04:59:33.296Z,99842.41
2023-04-15T05:02:00.837Z,99867.88
2023-04-15T05:04:27.989Z,99845.06
2023-04-15T05:06:55.566Z,99865.16
2023-04-15T05:09:22.600Z,99873.44
2023-04-15T05:11:51.400Z,99869.94
2023-04-15T05:14:18.445Z,99868.94
2023-04-15T05:16:45.791Z,99873.81
2023-04-15T05:19:12.772Z,99878.91
2023-04-15T05:21:40.079Z,99878.06
2023-04-15T05:24:07.120Z,99869.34
2023-04-15T05:26:34.440Z,99870.25
2023-04-15T05:29:02.920Z,99879.47
2023-04-15T05:31:30.242Z,99854.94
2023-04-15T05:33:57.331Z,99864.66
2023-04-15T05:36:24.707Z,99872.59
2023-04-15T05:38:51.728Z,99880.69
2023-04-15T05:41:19.869Z,99892.06
2023-04-15T05:43:47.130Z,99883.00
2023-04-15T05:46:16.014Z,99886.75
2023-04-15T05:48:42.974Z,99889.31
2023-04-15T05:51:10.532Z,99893.97
2023-04-15T05:53:37.596Z,99893.56
2023-04-15T05:56:05.186Z,99894.63
2023-04-15T05:58:32.303Z,99903.06
2023-04-15T06:00:59.998Z,99896.22
2023-04-15T06:03:29.749Z,99910.16
2023-04-15T06:05:57.013Z,99903.94
2023-04-15T06:08:23.995Z,99902.38
2023-04-15T06:10:51.495Z,99912.53
2023-04-15T06:13:18.441Z,99921.94
2023-04-15T06:15:45.670Z,99919.06
2023-04-15T06:18:13.078Z,99920.72
2023-04-15T06:20:41.882Z,99927.84
2023-04-15T06:23:08.978Z,99928.06
2023-04-15T06:25:36.286Z,99925.03
2023-04-15T06:28:03.672Z,99926.59
2023-04-15T06:30:30.930Z,99930.56
2023-04-15T06:32:58.144Z,99924.81
2023-04-15T06:35:25.523Z,99906.06
2023-04-15T06:37:53.945Z,99915.06
2023-04-15T06:40:21.737Z,99917.41
2023-04-15T06:42:48.778Z,99918.56
2023-04-15T06:45:16.037Z,99919.94
2023-04-15T06:47:43.662Z,99919.13
2023-04-15T06:50:11.666Z,99919.44
2023-04-15T06:52:38.775Z,99912.09
2023-04-15T06:55:08.773Z,99911.19
2023-04-15T06:57:36.021Z,99913.44
2023-04-15T07:00:05.755Z,99908.81
2023-04-15T07:02:32.953Z,99905.06
2023-04-15T07:05:00.663Z,99905.94
2023-04-15T07:07:27.752Z,99916.69
2023-04-15T07:09:54.959Z,99913.00
2023-04-15T07:12:23.329Z,99905.75
2023-04-15T07:14:50.721Z,99899.00
2023-04-15T07:17:17.813Z,99884.66
2023-04-15T07:19:45.096Z,99914.00
2023-04-15T07:22:12.204Z,99899.06
2023-04-15T07:24:39.624Z,99906.47
2023-04-15T07:27:06.512Z,99906.91
2023-04-15T07:29:36.375Z,99894.94
2023-04-15T07:32:03.830Z,99917.94
2023-04-15T07:34:32.823Z,99925.47
2023-04-15T07:37:00.175Z,99920.63
2023-04-15T07:39:27.593Z,99922.25
2023-04-15T07:41:54.686Z,99925.13
2023-04-15T07:44:22.015Z,99933.28
2023-04-15T07:46:50.533Z,99951.53
2023-04-15T07:49:19.432Z,99945.41
2023-04-15T07:51:46.431Z,99948.94
2023-04-15T07:54:14.095Z,99926.66
2023-04-15T07:56:41.369Z,99956.22
2023-04-15T07:59:09.880Z,99954.03
2023-04-15T08:01:37.691Z,99955.44
2023-04-15T08:04:06.702Z,99957.03
2023-04-15T08:06:34.057Z,99948.91
2023-04-15T08:09:01.862Z,99949.72
2023-04-15T08:11:28.994Z,99948.78
2023-04-15T08:13:56.610Z,99914.94
2023-04-15T08:16:24.993Z,99952.03
2023-04-15T08:18:53.961Z,99951.69
2023-04-15T08:21:22.957Z,99954.72
2023-04-15T08:23:51.508Z,99944.59
2023-04-15T08:26:18.860Z,99947.03
2023-04-15T08:28:46.684Z,99947.91
2023-04-15T08:31:14.958Z,99948.56
2023-04-15T08:33:42.743Z,99946.19
2023-04-15T08:36:09.944Z,99954.84
2023-04-15T08:38:38.618Z,99958.56
2023-04-15T08:41:12.487Z,99960.16
2023-04-15T08:43:48.206Z,99946.72
2023-04-15T08:46:16.759Z,99960.81
2023-04-15T08:48:44.245Z,99960.19
2023-04-15T08:51:11.762Z,99957.25
2023-04-15T08:53:40.508Z,99963.56
2023-04-15T08:56:10.348Z,99952.88
2023-04-15T08:58:38.272Z,99956.00
2023-04-15T09:01:05.583Z,99948.47
2023-04-15T09:03:34.822Z,99942.78
2023-04-15T09:06:04.672Z,99954.00
2023-04-15T09:08:32.300Z,99943.06
2023-04-15T09:14:12.355Z,99952.50
2023-04-15T09:17:01.065Z,99951.69
2023-04-15T09:19:28.931Z,99944.28
2023-04-15T09:21:59.069Z,99927.50
2023-04-15T09:24:37.470Z,99961.88
2023-04-15T09:27:05.187Z,99877.56
2023-04-15T09:29:34.174Z,99956.09
2023-04-15T09:32:11.036Z,99928.97
2023-04-15T09:34:38.704Z,99942.19
2023-04-15T09:37:07.625Z,99951.09
2023-04-15T09:39:50.016Z,99952.47
2023-04-15T09:42:23.994Z,99950.81
2023-04-15T09:44:53.239Z,99949.44
2023-04-15T09:47:29.311Z,99950.91
2023-04-15T09:49:57.499Z,99946.13
2023-04-15T09:52:24.515Z,99949.25
2023-04-15T09:54:54.604Z,99944.88
2023-04-15T09:57:21.941Z,99952.06
2023-04-15T09:59:49.191Z,99966.59
2023-04-15T10:02:20.970Z,99955.84
2023-04-15T10:04:49.378Z,99957.97
2023-04-15T10:07:20.615Z,99966.97
2023-04-15T10:09:49.358Z,99808.75
2023-04-15T10:12:18.180Z,99944.72
2023-04-15T10:14:51.817Z,99958.41
2023-04-15T10:17:22.815Z,99957.97
2023-04-15T10:19:54.069Z,99942.84
2023-04-15T10:22:22.902Z,99966.38
2023-04-15T10:24:51.422Z,99958.53
2023-04-15T10:27:19.050Z,99952.09
2023-04-15T10:29:47.815Z,99949.88
2023-04-15T10:32:15.981Z,99961.19
2023-04-15T10:34:46.380Z,99954.75
2023-04-15T10:37:13.489Z,99958.56
2023-04-15T10:39:43.092Z,99965.63
2023-04-15T10:42:11.492Z,99961.50
2023-04-15T10:44:39.461Z,99963.78
2023-04-15T10:47:13.894Z,99956.09
2023-04-15T10:49:47.181Z,99946.72
2023-04-15T10:52:15.576Z,99948.09
2023-04-15T10:54:44.816Z,99943.56
2023-04-15T10:57:17.525Z,99944.69
2023-04-15T11:00:04.765Z,99947.84
2023-04-15T11:02:44.036Z,99945.75
2023-04-15T11:05:13.854Z,99950.25
2023-04-15T11:07:48.697Z,99957.91
2023-04-15T11:10:52.641Z,99952.34
2023-04-15T11:13:22.768Z,99946.72
2023-04-15T11:15:50.330Z,99940.06
2023-04-15T11:18:18.759Z,99940.09
2023-04-15T11:20:50.622Z,99937.59
2023-04-15T11:23:18.923Z,99953.22
2023-04-15T11:25:46.265Z,99934.78
2023-04-15T11:28:13.709Z,99948.84
2023-04-15T11:30:42.504Z,99930.16
2023-04-15T11:33:12.199Z,99949.41
2023-04-15T11:35:41.653Z,99948.38
2023-04-15T11:38:12.099Z,99948.91
2023-04-15T11:40:40.296Z,99931.53
2023-04-15T11:43:09.089Z,99940.53
2023-04-15T11:45:37.416Z,99948.88
2023-04-15T11:48:09.272Z,99942.84
2023-04-15T11:50:37.850Z,99933.31
2023-04-15T11:53:08.286Z,99939.31
2023-04-15T11:55:44.716Z,99944.91
2023-04-15T11:58:15.618Z,99932.69
2023-04-15T12:00:48.261Z,99946.16
2023-04-15T12:03:20.180Z,99937.84
2023-04-15T12:06:07.573Z,99897.69
2023-04-15T12:09:09.807Z,99928.53
2023-04-15T12:11:41.704Z,99921.69
2023-04-15T12:14:16.086Z,99932.31
2023-04-15T12:16:48.682Z,99929.59
2023-04-15T12:19:18.861Z,99931.44
2023-04-15T12:21:48.693Z,99927.13
2023-04-15T12:24:19.839Z,99925.88
2023-04-15T12:26:50.468Z,99926.69
2023-04-15T12:29:18.036Z,99921.94
2023-04-15T12:31:53.502Z,99921.50
2023-04-15T12:34:27.970Z,99917.38
2023-04-15T12:36:55.748Z,99897.31
2023-04-15T12:39:24.566Z,99918.63
2023-04-15T12:41:53.370Z,99926.06
2023-04-15T12:44:22.759Z,99918.63
2023-04-15T12:46:50.649Z,99922.56
2023-04-15T12:49:20.072Z,99915.31
2023-04-15T12:51:49.397Z,99921.94
2023-04-15T12:54:16.903Z,99926.47
2023-04-15T12:56:44.563Z,99902.03
2023-04-15T12:59:13.041Z,99929.97
2023-04-15T13:01:40.648Z,99920.00
2023-04-15T13:04:08.196Z,99926.66
2023-04-15T13:06:36.256Z,99890.63
2023-04-15T13:09:05.247Z,99925.78
2023-04-15T13:11:36.763Z,99920.34
2023-04-15T13:14:06.749Z,99932.78
2023-04-15T13:16:36.026Z,99911.84
2023-04-15T13:19:03.625Z,99938.72
2023-04-15T13:21:35.077Z,99930.63
2023-04-15T13:24:02.739Z,99933.31
2023-04-15T13:26:31.322Z,99919.44
2023-04-15T13:28:58.360Z,99910.59
2023-04-15T13:31:26.362Z,99912.78
2023-04-15T13:34:04.509Z,99913.25
2023-04-15T13:36:31.982Z,99928.59
2023-04-15T13:38:59.968Z,99936.31
2023-04-15T13:41:27.274Z,99931.94
2023-04-15T13:43:54.348Z,99921.22
2023-04-15T13:46:22.283Z,99925.22
2023-04-15T13:48:49.835Z,99916.94
2023-04-15T13:51:18.521Z,99935.53
2023-04-15T13:53:45.805Z,99931.19
2023-04-15T13:56:13.056Z,99951.13
2023-04-15T13:58:41.227Z,99900.41
2023-04-15T14:01:08.776Z,99942.63
2023-04-15T14:03:36.950Z,99938.06
2023-04-15T14:06:04.951Z,99925.00
2023-04-15T14:08:33.657Z,99933.66
2023-04-15T14:11:01.124Z,99938.41
2023-04-15T14:13:28.838Z,99936.91
2023-04-15T14:15:57.212Z,99940.56
2023-04-15T14:18:24.210Z,99942.59
2023-04-15T14:20:51.814Z,99941.16
2023-04-15T14:23:18.943Z,99932.59
2023-04-15T14:25:48.548Z,99927.06
2023-04-15T14:28:15.831Z,99930.34
2023-04-15T14:30:43.538Z,99895.16
2023-04-15T14:33:10.667Z,99929.84
2023-04-15T14:35:38.229Z,99919.22
2023-04-15T14:38:11.003Z,99930.47
2023-04-15T14:40:38.861Z,99931.75
2023-04-15T14:43:07.502Z,99935.41
2023-04-15T14:45:36.509Z,99921.59
2023-04-15T14:48:03.811Z,99935.09
2023-04-15T14:50:31.095Z,99936.34
2023-04-15T14:52:58.591Z,99937.00
2023-04-15T14:55:25.898Z,99939.56
2023-04-15T14:57:53.103Z,99918.47
2023-04-15T15:00:22.030Z,99928.63
2023-04-15T15:02:49.174Z,99925.53
2023-04-15T15:05:17.017Z,99930.34
2023-04-15T15:07:44.050Z,99939.69
2023-04-15T15:10:11.257Z,99940.72
2023-04-15T15:12:38.299Z,99927.47
2023-04-15T15:15:15.774Z,99929.13
2023-04-15T15:17:53.980Z,99928.97
2023-04-15T15:20:21.963Z,99929.81
2023-04-15T15:22:49.305Z,99934.78
2023-04-15T15:25:16.859Z,99937.47
2023-04-15T15:27:44.097Z,99947.41
2023-04-15T15:30:12.642Z,99945.31
2023-04-15T15:32:40.703Z,99849.47
2023-04-15T15:35:11.078Z,99939.50
2023-04-15T15:37:38.613Z,99947.38
2023-04-15T15:40:07.076Z,99942.00
2023-04-15T15:42:34.488Z,99944.47
2023-04-15T15:45:04.771Z,99944.72
2023-04-15T15:47:32.173Z,99957.16
2023-04-15T15:50:00.549Z,99943.50
2023-04-15T15:52:28.888Z,99952.78
2023-04-15T15:54:56.071Z,99953.19
2023-04-15T15:57:23.258Z,99928.56
2023-04-15T15:59:52.801Z,99957.75
2023-04-15T16:02:52.347Z,99957.97
2023-04-15T16:05:15.913Z,99952.78
2023-04-15T16:07:44.219Z,99953.19
2023-04-15T16:10:12.515Z,99950.28
2023-04-15T16:12:39.587Z,99947.16
2023-04-15T16:15:08.226Z,99952.13
2023-04-15T16:17:35.528Z,99951.53
2023-04-15T16:20:05.649Z,99949.03
2023-04-15T16:22:32.869Z,99951.09
2023-04-15T16:25:01.767Z,99931.41
2023-04-15T16:27:29.026Z,99958.53
2023-04-15T16:29:56.281Z,99952.13
2023-04-15T16:32:23.279Z,99950.25
2023-04-15T16:34:50.873Z,99957.84
2023-04-15T16:37:17.898Z,99951.22
2023-04-15T16:39:45.035Z,99968.91
2023-04-15T16:42:13.366Z,99976.34
2023-04-15T16:44:40.708Z,99973.63
2023-04-15T16:47:09.778Z,99959.31
2023-04-15T16:49:37.047Z,99955.97
2023-04-15T16:52:04.125Z,99982.06
2023-04-15T16:54:33.509Z,99992.56
2023-04-15T16:57:02.057Z,99981.81
2023-04-15T16:59:30.484Z,99990.84
2023-04-15T17:01:57.746Z,99994.72
2023-04-15T17:04:25.386Z,99990.50
2023-04-15T17:06:52.418Z,100003.06
2023-04-15T17:09:19.713Z,100001.56
2023-04-15T17:11:46.722Z,100003.53
2023-04-15T17:14:14.277Z,100005.97
2023-04-15T17:16:43.239Z,100016.47
2023-04-15T17:19:10.566Z,100026.94
2023-04-15T17:21:37.590Z,100025.84
2023-04-15T17:24:06.096Z,100023.97
2023-04-15T17:26:33.176Z,100035.66
2023-04-15T17:29:00.424Z,100040.13
2023-04-15T17:31:29.665Z,100043.75
2023-04-15T17:34:09.990Z,100050.91
2023-04-15T17:36:38.055Z,100060.53
2023-04-15T17:39:05.583Z,100061.66
2023-04-15T17:41:32.785Z,100067.13
2023-04-15T17:44:00.505Z,100032.56
2023-04-15T17:46:29.076Z,100048.75
2023-04-15T17:48:56.415Z,100065.03
2023-04-15T17:51:24.867Z,100077.97
2023-04-15T17:53:52.177Z,100081.38
2023-04-15T17:56:19.264Z,100086.94
2023-04-15T17:58:46.666Z,100092.88
2023-04-15T18:01:13.681Z,100096.06
2023-04-15T18:03:41.117Z,100094.59
2023-04-15T18:06:08.230Z,100106.72
2023-04-15T18:08:36.936Z,100114.63
2023-04-15T18:11:04.708Z,100113.22
2023-04-15T18:13:32.262Z,100112.66
2023-04-15T18:15:59.298Z,100118.06
2023-04-15T18:18:26.643Z,100128.66
2023-04-15T18:20:53.589Z,100127.00
2023-04-15T18:23:21.056Z,100125.84
2023-04-15T18:25:49.811Z,100075.03
2023-04-15T18:28:17.095Z,100129.44
2023-04-15T18:30:44.194Z,100139.97
2023-04-15T18:33:12.319Z,100128.03
2023-04-15T18:35:39.313Z,100152.19
2023-04-15T18:38:06.485Z,100124.94
2023-04-15T18:40:33.606Z,100156.13
2023-04-15T18:43:02.163Z,100162.66
2023-04-15T18:45:30.044Z,100147.53
2023-04-15T18:48:00.220Z,100175.59
2023-04-15T18:50:27.265Z,100125.78
2023-04-15T18:52:54.613Z,100162.59
2023-04-15T18:55:23.835Z,100149.66
2023-04-15T18:57:51.563Z,100165.03
2023-04-15T19:00:19.979Z,100135.06
2023-04-15T19:02:47.276Z,100164.25
2023-04-15T19:05:14.396Z,100132.09
2023-04-15T19:07:42.059Z,100154.59
2023-04-15T19:10:09.494Z,100155.59
2023-04-15T19:12:37.067Z,100151.91
2023-04-15T19:15:04.363Z,100151.41
2023-04-15T19:17:33.317Z,100144.88
2023-04-15T19:20:00.566Z,100145.53
2023-04-15T19:22:29.943Z,100121.53
2023-04-15T19:24:56.813Z,100144.84
2023-04-15T19:27:24.032Z,100111.84
2023-04-15T19:29:50.954Z,100122.38
2023-04-15T19:32:18.240Z,100158.53
2023-04-15T19:34:46.653Z,100154.34
2023-04-15T19:37:14.742Z,100159.19
2023-04-15T19:39:41.884Z,100155.38
2023-04-15T19:42:09.713Z,100161.34
2023-04-15T19:44:37.402Z,100146.06
2023-04-15T19:47:04.638Z,100160.38
2023-04-15T19:49:31.725Z,100145.88
2023-04-15T19:52:00.370Z,100164.56
2023-04-15T19:54:27.482Z,100155.56
2023-04-15T19:56:54.851Z,100165.75
2023-04-15T19:59:21.900Z,100164.56
2023-04-15T20:01:49.259Z,100165.09
2023-04-15T20:04:16.755Z,100163.06
2023-04-15T20:06:44.099Z,100167.56
2023-04-15T20:09:12.577Z,100166.22
2023-04-15T20:12:45.941Z,100179.59
2023-04-15T20:14:27.400Z,100168.88
2023-04-15T20:16:54.738Z,100176.41
2023-04-15T20:19:21.716Z,100166.41
2023-04-15T20:21:50.321Z,100169.75
2023-04-15T20:24:21.464Z,100167.59
2023-04-15T20:26:48.981Z,100175.28
2023-04-15T20:29:16.021Z,100178.97
2023-04-15T20:31:43.410Z,100173.66
2023-04-15T20:34:12.141Z,100187.16
2023-04-15T20:36:39.298Z,100189.84
2023-04-15T20:39:06.396Z,100190.88
2023-04-15T20:41:35.342Z,100201.38
2023-04-15T20:44:02.380Z,100190.34
2023-04-15T20:46:29.595Z,100189.88
2023-04-15T20:48:56.538Z,100170.88
2023-04-15T20:51:23.815Z,100188.03
2023-04-15T20:53:51.247Z,100192.88
2023-04-15T20:56:18.624Z,100194.22
2023-04-15T20:58:47.001Z,100198.22
2023-04-15T21:01:14.355Z,100180.88
2023-04-15T21:03:41.563Z,100191.88
2023-04-15T21:06:08.891Z,100183.53
2023-04-15T21:08:35.949Z,100188.69
2023-04-15T21:11:03.418Z,100186.81
2023-04-15T21:13:30.416Z,100173.66
2023-04-15T21:15:59.107Z,100196.69
2023-04-15T21:18:26.120Z,100198.34
2023-04-15T21:20:56.849Z,100191.84
2023-04-15T21:23:23.973Z,100196.19
2023-04-15T21:25:51.536Z,100186.97
2023-04-15T21:28:18.492Z,100194.66
2023-04-15T21:30:46.196Z,100173.28
2023-04-15T21:33:14.618Z,100188.69
2023-04-15T21:35:41.935Z,100184.16
2023-04-15T21:38:08.936Z,100180.84
2023-04-15T21:40:40.330Z,100171.13
2023-04-15T21:43:07.661Z,100191.00
2023-04-15T21:45:35.137Z,100188.13
2023-04-15T21:48:07.549Z,100180.44
2023-04-15T21:50:37.486Z,100194.78
2023-04-15T21:53:06.486Z,100181.06
2023-04-15T21:55:33.744Z,100194.78
2023-04-15T21:58:00.656Z,100194.78
2023-04-15T22:00:28.014Z,100191.59
2023-04-15T22:02:55.508Z,100186.41
2023-04-15T22:05:22.909Z,100192.59
2023-04-15T22:07:51.556Z,100186.22
2023-04-15T22:10:19.587Z,100189.56
2023-04-15T22:12:46.528Z,100192.22
2023-04-15T22:15:14.761Z,100184.72
2023-04-15T22:17:41.672Z,100169.34
2023-04-15T22:20:09.966Z,100191.06
2023-04-15T22:22:43.971Z,100191.53
2023-04-15T22:25:16.456Z,100182.47
2023-04-15T22:27:43.382Z,100202.84
2023-04-15T22:30:11.528Z,100198.47
2023-04-15T22:32:38.487Z,100197.00
2023-04-15T22:35:06.704Z,100188.78
2023-04-15T22:37:33.715Z,100190.63
2023-04-15T22:40:01.988Z,100194.09
2023-04-15T22:42:30.422Z,100191.22
2023-04-15T22:44:57.689Z,100184.13
2023-04-15T22:47:24.724Z,100196.94
2023-04-15T22:49:51.932Z,100205.66
2023-04-15T22:52:27.496Z,100199.75
2023-04-15T22:54:57.610Z,100184.50
2023-04-15T22:57:24.486Z,100201.53
2023-04-15T22:59:53.075Z,100204.81
2023-04-15T23:02:20.554Z,100199.09
2023-04-15T23:04:48.057Z,100207.69
2023-04-15T23:07:15.074Z,100176.41
2023-04-15T23:09:42.305Z,100207.66
2023-04-15T23:12:09.500Z,100207.13
2023-04-15T23:14:36.801Z,100200.88
2023-04-15T23:17:05.544Z,100203.31
2023-04-15T23:19:32.941Z,100208.94
2023-04-15T23:21:59.933Z,100204.91
2023-04-15T23:24:27.190Z,100210.09
2023-04-15T23:26:54.768Z,100210.09
2023-04-15T23:29:22.031Z,100212.34
2023-04-15T23:31:49.029Z,100207.63
2023-04-15T23:34:17.712Z,100207.41
2023-04-15T23:36:44.627Z,100180.28
2023-04-15T23:39:12.108Z,100202.38
2023-04-15T23:41:39.140Z,100185.84
2023-04-15T23:44:07.173Z,100173.63
2023-04-15T23:46:34.083Z,100193.75
2023-04-15T23:49:01.231Z,100202.31
2023-04-15T23:51:29.418Z,100199.84
2023-04-15T23:53:56.735Z,100198.97
2023-04-15T23:56:23.697Z,100195.91
2023-04-15T23:58:51.049Z,100199.69
